sensor_id;sensor_type;location;lat;lon;timestamp;temperature;humidity
9820;DHT22;4949;48.482;9.206;2023-09-12T00:02:00;21.10;80.20
9820;DHT22;4949;48.482;9.206;2023-09-12T00:07:00;21.10;80.50
9820;DHT22;4949;48.482;9.206;2023-09-12T00:12:02;21.00;81.20
9820;DHT22;4949;48.482;9.206;2023-09-12T00:17:05;21.10;80.30
9820;DHT22;4949;48.482;9.206;2023-09-12T00:22:08;21.10;80.60
9820;DHT22;4949;48.482;9.206;2023-09-12T00:27:13;21.00;80.50
9820;DHT22;4949;48.482;9.206;2023-09-12T00:32:20;20.90;81.10
9820;DHT22;4949;48.482;9.206;2023-09-12T00:37:20;20.90;81.10
9820;DHT22;4949;48.482;9.206;2023-09-12T00:42:21;20.80;81.30
9820;DHT22;4949;48.482;9.206;2023-09-12T00:47:26;20.70;82.20
9820;DHT22;4949;48.482;9.206;2023-09-12T00:52:31;20.60;82.70
9820;DHT22;4949;48.482;9.206;2023-09-12T00:57:37;20.40;83.70
9820;DHT22;4949;48.482;9.206;2023-09-12T01:02:41;20.30;84.00
9820;DHT22;4949;48.482;9.206;2023-09-12T01:07:48;20.20;84.00
9820;DHT22;4949;48.482;9.206;2023-09-12T01:12:48;20.20;84.80
9820;DHT22;4949;48.482;9.206;2023-09-12T01:17:56;20.10;84.60
9820;DHT22;4949;48.482;9.206;2023-09-12T01:29:14;20.00;85.30
9820;DHT22;4949;48.482;9.206;2023-09-12T01:34:16;19.90;85.30
9820;DHT22;4949;48.482;9.206;2023-09-12T01:39:19;19.90;86.40
9820;DHT22;4949;48.482;9.206;2023-09-12T01:44:24;19.80;86.20
9820;DHT22;4949;48.482;9.206;2023-09-12T01:49:28;19.70;86.60
9820;DHT22;4949;48.482;9.206;2023-09-12T01:54:30;19.70;86.70
9820;DHT22;4949;48.482;9.206;2023-09-12T01:59:32;19.70;86.60
9820;DHT22;4949;48.482;9.206;2023-09-12T02:04:35;19.60;86.80
9820;DHT22;4949;48.482;9.206;2023-09-12T02:09:36;19.60;87.40
9820;DHT22;4949;48.482;9.206;2023-09-12T02:14:37;19.50;87.70
9820;DHT22;4949;48.482;9.206;2023-09-12T02:19:39;19.40;87.80
9820;DHT22;4949;48.482;9.206;2023-09-12T02:24:40;19.40;87.90
9820;DHT22;4949;48.482;9.206;2023-09-12T02:29:41;19.30;88.40
9820;DHT22;4949;48.482;9.206;2023-09-12T02:34:42;19.30;88.90
9820;DHT22;4949;48.482;9.206;2023-09-12T02:39:45;19.20;89.10
9820;DHT22;4949;48.482;9.206;2023-09-12T02:44:46;19.10;89.30
9820;DHT22;4949;48.482;9.206;2023-09-12T02:49:49;19.00;89.60
9820;DHT22;4949;48.482;9.206;2023-09-12T02:54:52;19.00;90.00
9820;DHT22;4949;48.482;9.206;2023-09-12T02:59:53;18.90;90.10
9820;DHT22;4949;48.482;9.206;2023-09-12T03:04:56;18.90;90.40
9820;DHT22;4949;48.482;9.206;2023-09-12T03:09:59;19.00;89.30
9820;DHT22;4949;48.482;9.206;2023-09-12T03:15:02;18.90;90.10
9820;DHT22;4949;48.482;9.206;2023-09-12T03:20:06;18.80;90.30
9820;DHT22;4949;48.482;9.206;2023-09-12T03:25:10;18.70;90.50
9820;DHT22;4949;48.482;9.206;2023-09-12T03:30:14;18.60;90.50
9820;DHT22;4949;48.482;9.206;2023-09-12T03:35:14;18.60;90.70
9820;DHT22;4949;48.482;9.206;2023-09-12T03:40:18;18.60;90.70
9820;DHT22;4949;48.482;9.206;2023-09-12T03:45:18;18.60;90.80
9820;DHT22;4949;48.482;9.206;2023-09-12T03:50:21;18.60;90.80
9820;DHT22;4949;48.482;9.206;2023-09-12T03:55:24;18.70;90.50
9820;DHT22;4949;48.482;9.206;2023-09-12T04:00:25;18.60;90.70
9820;DHT22;4949;48.482;9.206;2023-09-12T04:05:26;18.50;91.00
9820;DHT22;4949;48.482;9.206;2023-09-12T04:10:30;18.50;91.00
9820;DHT22;4949;48.482;9.206;2023-09-12T04:15:33;18.50;90.60
9820;DHT22;4949;48.482;9.206;2023-09-12T04:20:34;18.50;91.20
9820;DHT22;4949;48.482;9.206;2023-09-12T04:25:36;18.40;91.30
9820;DHT22;4949;48.482;9.206;2023-09-12T04:30:39;18.30;91.40
9820;DHT22;4949;48.482;9.206;2023-09-12T04:35:43;18.30;91.50
9820;DHT22;4949;48.482;9.206;2023-09-12T04:40:45;18.20;91.30
9820;DHT22;4949;48.482;9.206;2023-09-12T04:45:54;18.30;91.30
9820;DHT22;4949;48.482;9.206;2023-09-12T04:50:55;18.20;91.40
9820;DHT22;4949;48.482;9.206;2023-09-12T04:55:56;18.20;91.80
9820;DHT22;4949;48.482;9.206;2023-09-12T05:00:57;18.10;91.50
9820;DHT22;4949;48.482;9.206;2023-09-12T05:05:58;18.10;91.60
9820;DHT22;4949;48.482;9.206;2023-09-12T05:11:01;18.10;91.70
9820;DHT22;4949;48.482;9.206;2023-09-12T05:16:03;18.10;91.90
9820;DHT22;4949;48.482;9.206;2023-09-12T05:21:04;18.10;91.80
9820;DHT22;4949;48.482;9.206;2023-09-12T05:26:05;18.00;91.90
9820;DHT22;4949;48.482;9.206;2023-09-12T05:31:06;18.00;92.00
9820;DHT22;4949;48.482;9.206;2023-09-12T05:36:07;18.10;91.80
9820;DHT22;4949;48.482;9.206;2023-09-12T05:41:08;18.10;91.90
9820;DHT22;4949;48.482;9.206;2023-09-12T05:46:08;18.20;91.90
9820;DHT22;4949;48.482;9.206;2023-09-12T05:51:09;18.20;91.80
9820;DHT22;4949;48.482;9.206;2023-09-12T05:56:12;18.30;91.90
9820;DHT22;4949;48.482;9.206;2023-09-12T06:01:13;18.50;92.10
9820;DHT22;4949;48.482;9.206;2023-09-12T06:06:19;18.60;91.90
9820;DHT22;4949;48.482;9.206;2023-09-12T06:11:20;18.70;91.70
9820;DHT22;4949;48.482;9.206;2023-09-12T06:16:20;18.90;91.30
9820;DHT22;4949;48.482;9.206;2023-09-12T06:21:23;18.90;91.20
9820;DHT22;4949;48.482;9.206;2023-09-12T06:26:24;19.00;91.00
9820;DHT22;4949;48.482;9.206;2023-09-12T06:31:25;19.10;91.20
9820;DHT22;4949;48.482;9.206;2023-09-12T06:36:28;19.20;91.00
9820;DHT22;4949;48.482;9.206;2023-09-12T06:41:31;19.30;90.50
9820;DHT22;4949;48.482;9.206;2023-09-12T06:46:32;19.30;90.50
9820;DHT22;4949;48.482;9.206;2023-09-12T06:51:36;19.30;90.40
9820;DHT22;4949;48.482;9.206;2023-09-12T06:56:39;19.40;90.30
9820;DHT22;4949;48.482;9.206;2023-09-12T07:01:42;19.50;90.20
9820;DHT22;4949;48.482;9.206;2023-09-12T07:06:43;19.50;90.10
9820;DHT22;4949;48.482;9.206;2023-09-12T07:11:44;19.60;90.00
9820;DHT22;4949;48.482;9.206;2023-09-12T07:16:48;19.70;89.50
9820;DHT22;4949;48.482;9.206;2023-09-12T07:21:51;19.70;89.60
9820;DHT22;4949;48.482;9.206;2023-09-12T07:26:51;19.70;89.40
9820;DHT22;4949;48.482;9.206;2023-09-12T07:31:58;19.80;89.50
9820;DHT22;4949;48.482;9.206;2023-09-12T07:36:58;20.00;89.00
9820;DHT22;4949;48.482;9.206;2023-09-12T07:41:59;20.10;88.50
9820;DHT22;4949;48.482;9.206;2023-09-12T07:47:00;20.30;88.10
9820;DHT22;4949;48.482;9.206;2023-09-12T07:52:01;20.50;87.10
9820;DHT22;4949;48.482;9.206;2023-09-12T07:57:02;20.60;86.30
9820;DHT22;4949;48.482;9.206;2023-09-12T08:02:03;20.80;86.20
9820;DHT22;4949;48.482;9.206;2023-09-12T08:07:04;20.90;85.60
9820;DHT22;4949;48.482;9.206;2023-09-12T08:12:07;21.10;85.40
9820;DHT22;4949;48.482;9.206;2023-09-12T08:17:09;21.30;85.50
9820;DHT22;4949;48.482;9.206;2023-09-12T08:22:11;21.40;85.40
9820;DHT22;4949;48.482;9.206;2023-09-12T08:27:14;21.60;83.50
9820;DHT22;4949;48.482;9.206;2023-09-12T08:32:15;21.90;83.40
9820;DHT22;4949;48.482;9.206;2023-09-12T08:37:16;22.10;82.70
9820;DHT22;4949;48.482;9.206;2023-09-12T08:42:19;22.20;82.40
9820;DHT22;4949;48.482;9.206;2023-09-12T08:47:22;22.40;82.40
9820;DHT22;4949;48.482;9.206;2023-09-12T08:52:24;22.50;82.40
9820;DHT22;4949;48.482;9.206;2023-09-12T08:57:25;22.70;80.40
9820;DHT22;4949;48.482;9.206;2023-09-12T09:02:26;22.90;82.30
9820;DHT22;4949;48.482;9.206;2023-09-12T09:07:28;23.10;81.70
9820;DHT22;4949;48.482;9.206;2023-09-12T09:12:29;23.20;81.60
9820;DHT22;4949;48.482;9.206;2023-09-12T09:17:30;23.40;81.20
9820;DHT22;4949;48.482;9.206;2023-09-12T09:22:34;23.60;81.80
9820;DHT22;4949;48.482;9.206;2023-09-12T09:27:37;24.00;80.10
9820;DHT22;4949;48.482;9.206;2023-09-12T09:32:42;24.10;79.00
9820;DHT22;4949;48.482;9.206;2023-09-12T09:37:45;24.30;78.70
9820;DHT22;4949;48.482;9.206;2023-09-12T09:42:48;24.40;77.90
9820;DHT22;4949;48.482;9.206;2023-09-12T09:48:04;24.60;77.70
9820;DHT22;4949;48.482;9.206;2023-09-12T09:53:07;24.80;76.20
9820;DHT22;4949;48.482;9.206;2023-09-12T09:58:17;24.90;74.80
9820;DHT22;4949;48.482;9.206;2023-09-12T10:03:22;25.20;74.30
9820;DHT22;4949;48.482;9.206;2023-09-12T10:08:24;25.40;70.60
9820;DHT22;4949;48.482;9.206;2023-09-12T10:13:30;25.80;68.00
9820;DHT22;4949;48.482;9.206;2023-09-12T10:18:36;26.10;68.70
9820;DHT22;4949;48.482;9.206;2023-09-12T10:23:44;26.30;61.40
9820;DHT22;4949;48.482;9.206;2023-09-12T10:28:46;26.60;62.40
9820;DHT22;4949;48.482;9.206;2023-09-12T10:33:49;26.70;59.40
9820;DHT22;4949;48.482;9.206;2023-09-12T10:38:51;27.00;60.20
9820;DHT22;4949;48.482;9.206;2023-09-12T10:43:53;27.30;60.50
9820;DHT22;4949;48.482;9.206;2023-09-12T10:48:54;27.40;60.80
9820;DHT22;4949;48.482;9.206;2023-09-12T10:53:55;27.70;60.00
9820;DHT22;4949;48.482;9.206;2023-09-12T11:09:28;28.60;58.00
9820;DHT22;4949;48.482;9.206;2023-09-12T11:14:29;28.80;55.30
9820;DHT22;4949;48.482;9.206;2023-09-12T11:19:43;29.10;55.30
9820;DHT22;4949;48.482;9.206;2023-09-12T11:24:45;29.20;52.80
9820;DHT22;4949;48.482;9.206;2023-09-12T11:29:47;29.40;52.80
9820;DHT22;4949;48.482;9.206;2023-09-12T11:34:52;29.60;51.30
9820;DHT22;4949;48.482;9.206;2023-09-12T11:39:55;29.90;50.70
9820;DHT22;4949;48.482;9.206;2023-09-12T11:45:00;30.30;51.20
9820;DHT22;4949;48.482;9.206;2023-09-12T11:50:03;30.40;49.40
9820;DHT22;4949;48.482;9.206;2023-09-12T11:55:05;30.50;49.00
9820;DHT22;4949;48.482;9.206;2023-09-12T12:00:07;30.80;49.30
9820;DHT22;4949;48.482;9.206;2023-09-12T12:05:12;31.10;48.60
9820;DHT22;4949;48.482;9.206;2023-09-12T12:10:13;31.40;48.00
9820;DHT22;4949;48.482;9.206;2023-09-12T12:15:14;31.70;47.50
9820;DHT22;4949;48.482;9.206;2023-09-12T12:20:17;32.10;45.70
9820;DHT22;4949;48.482;9.206;2023-09-12T12:25:18;32.30;45.40
9820;DHT22;4949;48.482;9.206;2023-09-12T12:30:19;32.40;44.60
9820;DHT22;4949;48.482;9.206;2023-09-12T12:35:21;32.60;44.10
9820;DHT22;4949;48.482;9.206;2023-09-12T12:40:22;32.70;43.80
9820;DHT22;4949;48.482;9.206;2023-09-12T12:45:24;32.70;43.60
9820;DHT22;4949;48.482;9.206;2023-09-12T12:50:27;33.00;44.00
9820;DHT22;4949;48.482;9.206;2023-09-12T12:55:28;33.20;43.30
9820;DHT22;4949;48.482;9.206;2023-09-12T13:00:29;33.20;42.90
9820;DHT22;4949;48.482;9.206;2023-09-12T13:05:32;33.20;42.90
9820;DHT22;4949;48.482;9.206;2023-09-12T13:10:33;33.50;43.00
9820;DHT22;4949;48.482;9.206;2023-09-12T13:15:34;33.90;40.90
9820;DHT22;4949;48.482;9.206;2023-09-12T13:20:37;34.10;41.20
9820;DHT22;4949;48.482;9.206;2023-09-12T13:25:40;34.30;40.50
9820;DHT22;4949;48.482;9.206;2023-09-12T13:30:43;34.20;40.40
9820;DHT22;4949;48.482;9.206;2023-09-12T13:35:48;34.20;39.20
9820;DHT22;4949;48.482;9.206;2023-09-12T13:40:52;34.30;39.60
9820;DHT22;4949;48.482;9.206;2023-09-12T13:45:52;34.50;38.80
9820;DHT22;4949;48.482;9.206;2023-09-12T13:50:56;34.50;38.60
9820;DHT22;4949;48.482;9.206;2023-09-12T13:55:56;34.30;37.60
9820;DHT22;4949;48.482;9.206;2023-09-12T14:00:58;33.90;39.80
9820;DHT22;4949;48.482;9.206;2023-09-12T14:05:59;33.50;40.60
9820;DHT22;4949;48.482;9.206;2023-09-12T14:11:00;33.10;40.40
9820;DHT22;4949;48.482;9.206;2023-09-12T14:16:01;33.10;39.30
9820;DHT22;4949;48.482;9.206;2023-09-12T14:21:02;33.00;39.60
9820;DHT22;4949;48.482;9.206;2023-09-12T14:26:03;32.80;42.30
9820;DHT22;4949;48.482;9.206;2023-09-12T14:31:06;32.70;44.10
9820;DHT22;4949;48.482;9.206;2023-09-12T14:36:14;32.60;44.90
9820;DHT22;4949;48.482;9.206;2023-09-12T14:41:15;32.30;46.50
9820;DHT22;4949;48.482;9.206;2023-09-12T14:46:16;31.90;47.40
9820;DHT22;4949;48.482;9.206;2023-09-12T14:51:16;31.60;48.40
9820;DHT22;4949;48.482;9.206;2023-09-12T14:56:17;31.50;49.00
9820;DHT22;4949;48.482;9.206;2023-09-12T15:01:18;31.50;48.10
9820;DHT22;4949;48.482;9.206;2023-09-12T15:06:19;31.40;48.60
9820;DHT22;4949;48.482;9.206;2023-09-12T15:11:22;31.30;49.50
9820;DHT22;4949;48.482;9.206;2023-09-12T15:16:26;31.00;50.00
9820;DHT22;4949;48.482;9.206;2023-09-12T15:21:26;30.70;50.40
9820;DHT22;4949;48.482;9.206;2023-09-12T15:26:29;30.50;50.40
9820;DHT22;4949;48.482;9.206;2023-09-12T15:31:33;30.30;50.00
9820;DHT22;4949;48.482;9.206;2023-09-12T15:36:45;30.20;50.50
9820;DHT22;4949;48.482;9.206;2023-09-12T15:41:47;30.10;51.10
9820;DHT22;4949;48.482;9.206;2023-09-12T15:46:47;29.80;51.70
9820;DHT22;4949;48.482;9.206;2023-09-12T15:51:49;29.70;52.40
9820;DHT22;4949;48.482;9.206;2023-09-12T15:56:49;29.50;53.10
9820;DHT22;4949;48.482;9.206;2023-09-12T16:01:53;29.40;53.70
9820;DHT22;4949;48.482;9.206;2023-09-12T16:06:59;29.30;54.70
9820;DHT22;4949;48.482;9.206;2023-09-12T16:12:02;29.00;55.50
9820;DHT22;4949;48.482;9.206;2023-09-12T16:17:06;28.60;57.00
9820;DHT22;4949;48.482;9.206;2023-09-12T16:22:06;28.50;57.40
9820;DHT22;4949;48.482;9.206;2023-09-12T16:27:09;28.60;56.80
9820;DHT22;4949;48.482;9.206;2023-09-12T16:32:10;28.50;56.80
9820;DHT22;4949;48.482;9.206;2023-09-12T16:37:11;28.50;57.70
9820;DHT22;4949;48.482;9.206;2023-09-12T16:42:12;27.70;58.40
9820;DHT22;4949;48.482;9.206;2023-09-12T16:47:13;27.20;58.50
9820;DHT22;4949;48.482;9.206;2023-09-12T16:52:13;26.60;57.50
9820;DHT22;4949;48.482;9.206;2023-09-12T16:57:14;25.80;65.10
9820;DHT22;4949;48.482;9.206;2023-09-12T17:02:17;24.90;68.30
9820;DHT22;4949;48.482;9.206;2023-09-12T17:07:18;24.40;69.30
9820;DHT22;4949;48.482;9.206;2023-09-12T17:12:19;23.50;74.00
9820;DHT22;4949;48.482;9.206;2023-09-12T17:17:20;23.20;77.00
9820;DHT22;4949;48.482;9.206;2023-09-12T17:22:21;22.90;79.30
9820;DHT22;4949;48.482;9.206;2023-09-12T17:27:21;22.90;80.50
9820;DHT22;4949;48.482;9.206;2023-09-12T17:32:22;23.00;81.10
9820;DHT22;4949;48.482;9.206;2023-09-12T17:37:24;23.10;81.10
9820;DHT22;4949;48.482;9.206;2023-09-12T17:42:25;23.30;80.10
9820;DHT22;4949;48.482;9.206;2023-09-12T17:47:26;23.40;78.90
9820;DHT22;4949;48.482;9.206;2023-09-12T17:52:27;23.40;79.10
9820;DHT22;4949;48.482;9.206;2023-09-12T17:57:28;23.50;79.10
9820;DHT22;4949;48.482;9.206;2023-09-12T18:02:29;23.50;79.80
9820;DHT22;4949;48.482;9.206;2023-09-12T18:07:32;23.50;80.30
9820;DHT22;4949;48.482;9.206;2023-09-12T18:12:35;23.60;80.10
9820;DHT22;4949;48.482;9.206;2023-09-12T18:17:35;23.60;80.90
9820;DHT22;4949;48.482;9.206;2023-09-12T18:22:36;23.80;80.30
9820;DHT22;4949;48.482;9.206;2023-09-12T18:27:37;23.80;81.40
9820;DHT22;4949;48.482;9.206;2023-09-12T18:32:38;23.80;80.50
9820;DHT22;4949;48.482;9.206;2023-09-12T18:37:41;23.80;80.40
9820;DHT22;4949;48.482;9.206;2023-09-12T18:42:42;23.80;79.60
9820;DHT22;4949;48.482;9.206;2023-09-12T18:47:47;23.80;79.30
9820;DHT22;4949;48.482;9.206;2023-09-12T18:52:48;23.90;79.20
9820;DHT22;4949;48.482;9.206;2023-09-12T18:57:55;24.00;79.10
9820;DHT22;4949;48.482;9.206;2023-09-12T19:02:56;23.90;78.40
9820;DHT22;4949;48.482;9.206;2023-09-12T19:07:57;23.90;80.50
9820;DHT22;4949;48.482;9.206;2023-09-12T19:12:58;23.70;83.50
9820;DHT22;4949;48.482;9.206;2023-09-12T19:18:02;23.60;83.30
9820;DHT22;4949;48.482;9.206;2023-09-12T19:23:07;23.40;85.10
9820;DHT22;4949;48.482;9.206;2023-09-12T19:28:13;23.30;85.60
9820;DHT22;4949;48.482;9.206;2023-09-12T19:33:15;23.40;84.00
9820;DHT22;4949;48.482;9.206;2023-09-12T19:38:16;23.30;83.80
9820;DHT22;4949;48.482;9.206;2023-09-12T19:43:17;23.30;84.20
9820;DHT22;4949;48.482;9.206;2023-09-12T19:48:20;23.10;84.50
9820;DHT22;4949;48.482;9.206;2023-09-12T19:53:23;23.00;85.50
9820;DHT22;4949;48.482;9.206;2023-09-12T19:58:26;22.80;86.10
9820;DHT22;4949;48.482;9.206;2023-09-12T20:03:27;22.60;85.80
9820;DHT22;4949;48.482;9.206;2023-09-12T20:08:28;22.80;85.40
9820;DHT22;4949;48.482;9.206;2023-09-12T20:13:28;22.70;86.40
9820;DHT22;4949;48.482;9.206;2023-09-12T20:18:29;22.60;86.90
9820;DHT22;4949;48.482;9.206;2023-09-12T20:23:30;22.60;87.10
9820;DHT22;4949;48.482;9.206;2023-09-12T20:28:35;22.40;86.70
9820;DHT22;4949;48.482;9.206;2023-09-12T20:33:41;22.40;86.90
9820;DHT22;4949;48.482;9.206;2023-09-12T20:38:48;22.60;85.80
9820;DHT22;4949;48.482;9.206;2023-09-12T20:43:49;22.50;86.90
9820;DHT22;4949;48.482;9.206;2023-09-12T20:48:50;22.50;86.10
9820;DHT22;4949;48.482;9.206;2023-09-12T20:53:51;22.40;85.90
9820;DHT22;4949;48.482;9.206;2023-09-12T20:58:54;22.60;85.30
9820;DHT22;4949;48.482;9.206;2023-09-12T21:03:54;22.50;85.00
9820;DHT22;4949;48.482;9.206;2023-09-12T21:08:55;22.40;84.90
9820;DHT22;4949;48.482;9.206;2023-09-12T21:13:56;22.30;85.10
9820;DHT22;4949;48.482;9.206;2023-09-12T21:18:56;22.30;85.30
9820;DHT22;4949;48.482;9.206;2023-09-12T21:23:57;22.20;85.80
9820;DHT22;4949;48.482;9.206;2023-09-12T21:28:58;22.00;86.90
9820;DHT22;4949;48.482;9.206;2023-09-12T21:33:59;21.80;87.80
9820;DHT22;4949;48.482;9.206;2023-09-12T21:39:02;21.60;88.80
9820;DHT22;4949;48.482;9.206;2023-09-12T21:44:06;21.60;88.10
9820;DHT22;4949;48.482;9.206;2023-09-12T21:49:09;21.40;88.60
9820;DHT22;4949;48.482;9.206;2023-09-12T21:54:10;21.30;89.50
9820;DHT22;4949;48.482;9.206;2023-09-12T21:59:13;21.20;90.20
9820;DHT22;4949;48.482;9.206;2023-09-12T22:04:16;21.10;89.80
9820;DHT22;4949;48.482;9.206;2023-09-12T22:09:17;21.10;89.30
9820;DHT22;4949;48.482;9.206;2023-09-12T22:14:17;21.20;88.80
9820;DHT22;4949;48.482;9.206;2023-09-12T22:19:21;21.10;88.80
9820;DHT22;4949;48.482;9.206;2023-09-12T22:24:21;21.00;90.00
9820;DHT22;4949;48.482;9.206;2023-09-12T22:29:22;21.10;89.00
9820;DHT22;4949;48.482;9.206;2023-09-12T22:34:23;21.00;88.80
9820;DHT22;4949;48.482;9.206;2023-09-12T22:39:23;21.00;89.10
9820;DHT22;4949;48.482;9.206;2023-09-12T22:44:24;21.00;89.50
9820;DHT22;4949;48.482;9.206;2023-09-12T22:49:27;21.00;89.30
9820;DHT22;4949;48.482;9.206;2023-09-12T22:54:30;21.00;89.40
9820;DHT22;4949;48.482;9.206;2023-09-12T22:59:33;21.00;89.30
9820;DHT22;4949;48.482;9.206;2023-09-12T23:04:34;20.90;89.90
9820;DHT22;4949;48.482;9.206;2023-09-12T23:09:38;20.90;89.10
9820;DHT22;4949;48.482;9.206;2023-09-12T23:14:38;21.00;86.70
9820;DHT22;4949;48.482;9.206;2023-09-12T23:19:39;21.20;86.00
9820;DHT22;4949;48.482;9.206;2023-09-12T23:24:40;21.20;82.70
9820;DHT22;4949;48.482;9.206;2023-09-12T23:29:43;21.30;81.90
9820;DHT22;4949;48.482;9.206;2023-09-12T23:34:44;21.40;82.40
9820;DHT22;4949;48.482;9.206;2023-09-12T23:39:47;21.30;82.80
9820;DHT22;4949;48.482;9.206;2023-09-12T23:44:48;21.30;83.30
9820;DHT22;4949;48.482;9.206;2023-09-12T23:49:53;21.30;83.40
9820;DHT22;4949;48.482;9.206;2023-09-12T23:54:54;21.50;83.80
9820;DHT22;4949;48.482;9.206;2023-09-12T23:59:55;21.40;83.90
